createdAt,value
2018-07-09T00:00:42.451Z,1010.18
2018-07-09T00:01:42.475Z,1010.19
2018-07-09T00:02:42.593Z,1010.18
2018-07-09T00:03:42.609Z,1010.16
2018-07-09T00:04:42.434Z,1010.17
2018-07-09T00:05:42.437Z,1010.20
2018-07-09T00:06:42.495Z,1010.17
2018-07-09T00:07:42.554Z,1010.19
2018-07-09T00:08:43.160Z,1010.22
2018-07-09T00:09:42.392Z,1010.22
2018-07-09T00:10:42.378Z,1010.19
2018-07-09T00:11:42.361Z,1010.22
2018-07-09T00:12:42.377Z,1010.21
2018-07-09T00:13:46.420Z,1010.21
2018-07-09T00:14:42.363Z,1010.23
2018-07-09T00:15:48.547Z,1010.23
2018-07-09T00:16:42.330Z,1010.24
2018-07-09T00:17:42.370Z,1010.21
2018-07-09T00:18:43.203Z,1010.26
2018-07-09T00:19:42.319Z,1010.25
2018-07-09T00:20:42.347Z,1010.24
2018-07-09T00:21:42.338Z,1010.23
2018-07-09T00:22:42.312Z,1010.23
2018-07-09T00:23:42.913Z,1010.19
2018-07-09T00:24:42.260Z,1010.19
2018-07-09T00:25:42.238Z,1010.22
2018-07-09T00:26:42.275Z,1010.15
2018-07-09T00:27:42.236Z,1010.20
2018-07-09T00:28:42.228Z,1010.21
2018-07-09T00:29:42.209Z,1010.18
2018-07-09T00:30:42.222Z,1010.22
2018-07-09T00:31:42.329Z,1010.19
2018-07-09T00:32:42.185Z,1010.18
2018-07-09T00:33:42.180Z,1010.16
2018-07-09T00:34:42.192Z,1010.19
2018-07-09T00:35:42.158Z,1010.18
2018-07-09T00:36:42.152Z,1010.20
2018-07-09T00:37:42.197Z,1010.19
2018-07-09T00:38:42.680Z,1010.22
2018-07-09T00:39:42.118Z,1010.22
2018-07-09T00:40:42.103Z,1010.22
2018-07-09T00:41:42.093Z,1010.24
2018-07-09T00:42:42.098Z,1010.25
2018-07-09T00:43:42.225Z,1010.26
2018-07-09T00:44:42.070Z,1010.22
2018-07-09T00:45:42.057Z,1010.24
2018-07-09T00:46:42.061Z,1010.22
2018-07-09T00:47:42.061Z,1010.28
2018-07-09T00:48:42.037Z,1010.25
2018-07-09T00:49:42.037Z,1010.27
2018-07-09T00:50:42.029Z,1010.29
2018-07-09T00:51:42.023Z,1010.25
2018-07-09T00:52:42.008Z,1010.22
2018-07-09T00:53:41.993Z,1010.23
2018-07-09T00:54:42.202Z,1010.23
2018-07-09T00:55:42.112Z,1010.20
2018-07-09T00:56:43.325Z,1010.24
2018-07-09T00:57:42.894Z,1010.24
2018-07-09T00:58:41.954Z,1010.22
2018-07-09T00:59:41.929Z,1010.18
2018-07-09T01:00:41.963Z,1010.19
2018-07-09T01:01:41.920Z,1010.13
2018-07-09T01:02:41.917Z,1010.13
2018-07-09T01:03:41.900Z,1010.12
2018-07-09T01:04:41.882Z,1010.16
2018-07-09T01:05:42.904Z,1010.11
2018-07-09T01:06:41.882Z,1010.13
2018-07-09T01:07:41.852Z,1010.08
2018-07-09T01:08:41.861Z,1010.04
2018-07-09T01:09:41.833Z,1010.05
2018-07-09T01:10:41.823Z,1010.06
2018-07-09T01:11:42.039Z,1010.07
2018-07-09T01:12:41.848Z,1010.12
2018-07-09T01:13:41.800Z,1010.13
2018-07-09T01:14:41.782Z,1010.19
2018-07-09T01:15:41.791Z,1010.20
2018-07-09T01:16:41.815Z,1010.20
2018-07-09T01:17:41.811Z,1010.18
2018-07-09T01:18:41.759Z,1010.15
2018-07-09T01:19:41.747Z,1010.11
2018-07-09T01:20:41.731Z,1010.14
2018-07-09T01:21:41.736Z,1010.13
2018-07-09T01:22:41.840Z,1010.13
2018-07-09T01:23:41.914Z,1010.17
2018-07-09T01:24:41.694Z,1010.16
2018-07-09T01:25:41.681Z,1010.16
2018-07-09T01:26:41.688Z,1010.16
2018-07-09T01:27:41.703Z,1010.16
2018-07-09T01:28:41.654Z,1010.14
2018-07-09T01:29:41.644Z,1010.10
2018-07-09T01:30:41.644Z,1010.13
2018-07-09T01:31:41.641Z,1010.12
2018-07-09T01:32:41.679Z,1010.07
2018-07-09T01:33:41.610Z,1010.08
2018-07-09T01:34:41.607Z,1010.09
2018-07-09T01:35:41.593Z,1010.10
2018-07-09T01:36:41.598Z,1010.10
2018-07-09T01:37:41.739Z,1010.06
2018-07-09T01:38:41.558Z,1010.08
2018-07-09T01:39:41.554Z,1010.07
2018-07-09T01:40:41.535Z,1010.08
2018-07-09T01:41:41.544Z,1010.08
2018-07-09T01:42:41.543Z,1010.11
2018-07-09T01:43:41.756Z,1010.11
2018-07-09T01:44:41.503Z,1010.12
2018-07-09T01:45:41.489Z,1010.06
2018-07-09T01:46:41.475Z,1010.07
2018-07-09T01:47:41.482Z,1010.09
2018-07-09T01:48:41.460Z,1010.05
2018-07-09T01:49:41.471Z,1010.02
2018-07-09T01:50:41.439Z,1010.04
2018-07-09T01:51:41.436Z,1010.04
2018-07-09T01:52:41.407Z,1010.04
2018-07-09T01:53:41.494Z,1010.05
2018-07-09T01:54:41.398Z,1010.06
2018-07-09T01:55:41.391Z,1010.08
2018-07-09T01:56:41.430Z,1010.06
2018-07-09T01:57:41.406Z,1010.06
2018-07-09T01:58:41.756Z,1010.08
2018-07-09T01:59:41.384Z,1010.09
2018-07-09T02:00:41.340Z,1010.07
2018-07-09T02:01:41.322Z,1010.07
2018-07-09T02:02:41.325Z,1010.05
2018-07-09T02:03:41.321Z,1009.99
2018-07-09T02:04:41.285Z,1010.00
2018-07-09T02:05:41.293Z,1010.01
2018-07-09T02:06:41.283Z,1010.02
2018-07-09T02:07:41.295Z,1010.01
2018-07-09T02:08:42.264Z,1010.00
2018-07-09T02:09:41.263Z,1010.02
2018-07-09T02:10:41.266Z,1009.99
2018-07-09T02:11:41.230Z,1009.97
2018-07-09T02:12:56.540Z,1009.97
2018-07-09T02:13:41.196Z,1009.98
2018-07-09T02:14:41.237Z,1009.94
2018-07-09T02:15:41.183Z,1009.91
2018-07-09T02:16:41.178Z,1009.91
2018-07-09T02:17:41.159Z,1009.90
2018-07-09T02:18:41.160Z,1009.95
2018-07-09T02:19:41.143Z,1009.93
2018-07-09T02:20:41.258Z,1009.95
2018-07-09T02:21:41.117Z,1009.95
2018-07-09T02:22:41.105Z,1009.93
2018-07-09T02:23:41.097Z,1009.92
2018-07-09T02:24:41.107Z,1009.94
2018-07-09T02:25:41.080Z,1009.90
2018-07-09T02:26:41.075Z,1009.91
2018-07-09T02:27:41.063Z,1009.89
2018-07-09T02:28:41.041Z,1009.89
2018-07-09T02:29:41.042Z,1009.89
2018-07-09T02:30:42.768Z,1009.88
2018-07-09T02:31:41.048Z,1009.89
2018-07-09T02:32:41.044Z,1009.88
2018-07-09T02:33:41.002Z,1009.80
2018-07-09T02:34:40.997Z,1009.85
2018-07-09T02:35:40.967Z,1009.87
2018-07-09T02:36:40.973Z,1009.86
2018-07-09T02:37:41.098Z,1009.88
2018-07-09T02:38:40.959Z,1009.86
2018-07-09T02:39:40.942Z,1009.84
2018-07-09T02:40:40.921Z,1009.84
2018-07-09T02:41:40.906Z,1009.89
2018-07-09T02:42:40.896Z,1009.90
2018-07-09T02:43:40.906Z,1009.90
2018-07-09T02:44:40.885Z,1009.90
2018-07-09T02:45:40.868Z,1009.92
2018-07-09T02:46:40.853Z,1009.90
2018-07-09T02:47:40.853Z,1009.92
2018-07-09T02:48:40.987Z,1009.94
2018-07-09T02:49:40.815Z,1010.00
2018-07-09T02:50:40.821Z,1009.96
2018-07-09T02:51:40.805Z,1010.01
2018-07-09T02:52:40.898Z,1010.00
2018-07-09T02:53:40.792Z,1010.03
2018-07-09T02:54:40.925Z,1010.06
2018-07-09T02:55:40.752Z,1010.03
2018-07-09T02:56:40.750Z,1010.02
2018-07-09T02:57:40.773Z,1009.99
2018-07-09T02:58:40.737Z,1010.00
2018-07-09T02:59:40.718Z,1010.07
2018-07-09T03:00:40.800Z,1010.04
2018-07-09T03:01:40.727Z,1010.05
2018-07-09T03:02:40.706Z,1010.07
2018-07-09T03:03:40.702Z,1010.06
2018-07-09T03:04:40.668Z,1010.08
2018-07-09T03:05:40.692Z,1010.05
2018-07-09T03:06:40.644Z,1009.99
2018-07-09T03:07:40.640Z,1010.04
2018-07-09T03:08:40.630Z,1010.03
2018-07-09T03:09:40.618Z,1010.05
2018-07-09T03:10:40.664Z,1010.06
2018-07-09T03:11:40.594Z,1010.09
2018-07-09T03:12:40.576Z,1010.07
2018-07-09T03:13:40.572Z,1010.09
2018-07-09T03:14:40.569Z,1010.11
2018-07-09T03:15:40.550Z,1010.16
2018-07-09T03:16:40.568Z,1010.19
2018-07-09T03:17:40.518Z,1010.16
2018-07-09T03:18:40.524Z,1010.20
2018-07-09T03:19:40.521Z,1010.20
2018-07-09T03:20:40.535Z,1010.17
2018-07-09T03:21:40.481Z,1010.20
2018-07-09T03:22:40.460Z,1010.21
2018-07-09T03:23:40.468Z,1010.16
2018-07-09T03:24:40.456Z,1010.15
2018-07-09T03:25:40.577Z,1010.12
2018-07-09T03:26:40.437Z,1010.12
2018-07-09T03:27:40.424Z,1010.15
2018-07-09T03:28:40.410Z,1010.12
2018-07-09T03:29:40.503Z,1010.14
2018-07-09T03:32:07.554Z,1010.19
2018-07-09T03:32:35.200Z,1010.18
2018-07-09T03:33:08.053Z,1010.18
2018-07-09T03:34:08.052Z,1010.16
2018-07-09T03:35:08.780Z,1010.21
2018-07-09T03:36:08.008Z,1010.25
2018-07-09T03:37:08.331Z,1010.21
2018-07-09T03:38:08.004Z,1010.18
2018-07-09T03:39:07.977Z,1010.22
2018-07-09T03:40:08.145Z,1010.21
2018-07-09T03:41:07.975Z,1010.16
2018-07-09T03:42:07.984Z,1010.09
2018-07-09T03:43:07.935Z,1010.09
2018-07-09T03:44:08.096Z,1010.13
2018-07-09T03:45:08.154Z,1010.16
2018-07-09T03:46:07.912Z,1010.16
2018-07-09T03:47:07.893Z,1010.16
2018-07-09T03:48:07.894Z,1010.18
2018-07-09T03:49:07.891Z,1010.19
2018-07-09T03:50:07.871Z,1010.20
2018-07-09T03:51:07.862Z,1010.17
2018-07-09T03:52:07.854Z,1010.16
2018-07-09T03:53:07.829Z,1010.19
2018-07-09T03:54:08.903Z,1010.15
2018-07-09T03:55:07.843Z,1010.16
2018-07-09T03:56:07.838Z,1010.13
2018-07-09T03:57:07.790Z,1010.13
2018-07-09T03:58:07.779Z,1010.13
2018-07-09T03:59:19.513Z,1010.14
2018-07-09T04:00:07.751Z,1010.15
2018-07-09T04:01:07.751Z,1010.16
2018-07-09T04:02:07.953Z,1010.19
2018-07-09T04:03:07.842Z,1010.17
2018-07-09T04:04:07.714Z,1010.15
2018-07-09T04:05:07.713Z,1010.20
2018-07-09T04:06:07.740Z,1010.16
2018-07-09T04:07:07.683Z,1010.21
2018-07-09T04:08:07.715Z,1010.21
2018-07-09T04:09:07.679Z,1010.17
2018-07-09T04:10:07.648Z,1010.19
2018-07-09T04:11:07.630Z,1010.19
2018-07-09T04:12:07.630Z,1010.19
2018-07-09T04:13:07.971Z,1010.20
2018-07-09T04:14:08.489Z,1010.19
2018-07-09T04:15:07.631Z,1010.24
2018-07-09T04:16:18.299Z,1010.19
2018-07-09T04:17:12.431Z,1010.17
2018-07-09T04:18:07.619Z,1010.20
2018-07-09T04:19:07.560Z,1010.19
2018-07-09T04:21:55.870Z,1010.16
2018-07-09T04:22:55.697Z,1010.22
2018-07-09T04:23:55.703Z,1010.20
2018-07-09T04:31:06.830Z,1010.12
2018-07-09T04:31:40.491Z,1010.14
2018-07-09T04:32:40.440Z,1010.13
2018-07-09T04:33:39.769Z,1010.13
2018-07-09T04:34:39.827Z,1010.13
2018-07-09T04:35:39.823Z,1010.13
2018-07-09T04:36:39.828Z,1010.09
2018-07-09T04:37:39.738Z,1010.10
2018-07-09T04:38:39.775Z,1010.12
2018-07-09T04:39:39.810Z,1010.19
2018-07-09T04:40:39.900Z,1010.17
2018-07-09T04:41:40.682Z,1010.14
2018-07-09T04:42:40.485Z,1010.15
2018-07-09T04:43:39.888Z,1010.17
2018-07-09T04:44:39.804Z,1010.15
2018-07-09T04:45:39.711Z,1010.11
2018-07-09T04:46:39.892Z,1010.17
2018-07-09T04:47:39.753Z,1010.10
2018-07-09T04:48:39.848Z,1010.10
2018-07-09T04:49:39.926Z,1010.11
2018-07-09T04:50:41.525Z,1010.08
2018-07-09T04:51:39.709Z,1010.13
2018-07-09T04:52:39.818Z,1010.14
2018-07-09T04:53:39.652Z,1010.15
2018-07-09T04:54:39.783Z,1010.13
2018-07-09T04:55:40.822Z,1010.13
2018-07-09T04:56:39.558Z,1010.10
2018-07-09T04:57:40.701Z,1010.09
2018-07-09T04:58:39.755Z,1010.08
2018-07-09T04:59:39.551Z,1010.09
2018-07-09T05:00:39.493Z,1010.07
2018-07-09T05:01:39.912Z,1010.10
2018-07-09T05:02:39.769Z,1010.11
2018-07-09T05:03:40.201Z,1010.10
2018-07-09T05:04:39.482Z,1010.09
2018-07-09T05:05:40.084Z,1010.08
2018-07-09T05:06:39.514Z,1010.08
2018-07-09T05:07:39.615Z,1010.13
2018-07-09T05:08:39.505Z,1010.11
2018-07-09T05:09:42.271Z,1010.11
2018-07-09T05:10:39.392Z,1010.11
2018-07-09T05:11:50.173Z,1010.12
2018-07-09T05:12:39.444Z,1010.14
2018-07-09T05:13:39.358Z,1010.13
2018-07-09T05:14:39.366Z,1010.19
2018-07-09T05:15:39.410Z,1010.18
2018-07-09T05:16:39.316Z,1010.14
2018-07-09T05:17:39.355Z,1010.15
2018-07-09T05:18:39.342Z,1010.16
2018-07-09T05:19:39.366Z,1010.14
2018-07-09T05:20:39.307Z,1010.10
2018-07-09T05:21:39.333Z,1010.09
2018-07-09T05:22:39.264Z,1010.08
2018-07-09T05:23:39.252Z,1010.05
2018-07-09T05:24:39.243Z,1010.01
2018-07-09T05:25:39.328Z,1009.99
2018-07-09T05:26:40.152Z,1010.00
2018-07-09T05:27:39.229Z,1009.97
2018-07-09T05:28:39.213Z,1009.95
2018-07-09T05:29:39.301Z,1009.99
2018-07-09T05:30:39.248Z,1010.00
2018-07-09T05:31:39.195Z,1009.95
2018-07-09T05:32:39.325Z,1009.99
2018-07-09T05:33:39.215Z,1009.97
2018-07-09T05:34:39.165Z,1009.98
2018-07-09T05:35:40.748Z,1009.98
2018-07-09T05:36:42.149Z,1009.93
2018-07-09T05:37:43.057Z,1009.91
2018-07-09T05:38:39.119Z,1009.93
2018-07-09T05:39:40.241Z,1009.95
2018-07-09T05:40:39.177Z,1009.97
2018-07-09T05:41:39.133Z,1009.98
2018-07-09T05:42:39.165Z,1009.96
2018-07-09T05:43:39.308Z,1010.02
2018-07-09T05:44:39.132Z,1010.01
2018-07-09T05:45:39.173Z,1010.02
2018-07-09T05:46:39.271Z,1010.01
2018-07-09T05:47:39.221Z,1010.03
2018-07-09T05:48:39.537Z,1010.04
2018-07-09T05:49:38.990Z,1010.05
2018-07-09T05:50:39.064Z,1010.07
2018-07-09T05:51:39.035Z,1010.08
2018-07-09T05:52:38.946Z,1010.07
2018-07-09T05:53:38.984Z,1010.06
2018-07-09T05:54:39.492Z,1010.10
2018-07-09T05:55:39.010Z,1010.14
2018-07-09T05:56:39.622Z,1010.11
2018-07-09T05:57:38.910Z,1010.15
2018-07-09T05:58:38.946Z,1010.16
2018-07-09T05:59:38.884Z,1010.15
2018-07-09T06:00:39.143Z,1010.16
2018-07-09T06:01:39.502Z,1010.17
2018-07-09T06:02:38.864Z,1010.20
2018-07-09T06:03:39.503Z,1010.15
2018-07-09T06:04:38.839Z,1010.18
2018-07-09T06:05:38.920Z,1010.12
2018-07-09T06:06:38.979Z,1010.10
2018-07-09T06:07:38.816Z,1010.13
2018-07-09T06:08:38.805Z,1010.09
2018-07-09T06:09:41.027Z,1010.09
2018-07-09T06:10:38.789Z,1010.08
2018-07-09T06:11:38.769Z,1010.07
2018-07-09T06:12:38.771Z,1010.09
2018-07-09T06:13:39.056Z,1010.02
2018-07-09T06:14:38.766Z,1010.03
2018-07-09T06:15:38.745Z,1010.04
2018-07-09T06:16:38.717Z,1010.07
2018-07-09T06:17:38.795Z,1010.08
2018-07-09T06:18:38.707Z,1010.06
2018-07-09T06:19:38.724Z,1010.11
2018-07-09T06:20:38.680Z,1010.14
2018-07-09T06:21:38.690Z,1010.11
2018-07-09T06:22:38.688Z,1010.14
2018-07-09T06:23:38.652Z,1010.12
2018-07-09T06:24:38.644Z,1010.14
2018-07-09T06:25:38.648Z,1010.16
2018-07-09T06:26:39.508Z,1010.18
2018-07-09T06:27:38.633Z,1010.19
2018-07-09T06:28:38.610Z,1010.18
2018-07-09T06:29:38.591Z,1010.11
2018-07-09T06:30:38.625Z,1010.10
2018-07-09T06:31:38.675Z,1010.15
2018-07-09T06:32:38.584Z,1010.15
2018-07-09T06:33:38.622Z,1010.17
2018-07-09T06:34:38.536Z,1010.20
2018-07-09T06:35:38.592Z,1010.19
2018-07-09T06:36:40.738Z,1010.16
2018-07-09T06:37:38.521Z,1010.17
2018-07-09T06:38:38.517Z,1010.20
2018-07-09T06:39:39.504Z,1010.17
2018-07-09T06:40:38.491Z,1010.18
2018-07-09T06:41:38.492Z,1010.19
2018-07-09T06:42:38.506Z,1010.23
2018-07-09T06:43:38.468Z,1010.22
2018-07-09T06:44:38.487Z,1010.20
2018-07-09T06:45:38.979Z,1010.21
2018-07-09T06:46:38.465Z,1010.19
2018-07-09T06:47:38.436Z,1010.17
2018-07-09T06:48:39.435Z,1010.13
2018-07-09T06:49:38.648Z,1010.16
2018-07-09T06:50:38.408Z,1010.26
2018-07-09T06:51:38.524Z,1010.23
2018-07-09T06:52:38.378Z,1010.22
2018-07-09T06:53:38.376Z,1010.21
2018-07-09T06:54:38.373Z,1010.20
2018-07-09T06:55:38.365Z,1010.23
2018-07-09T06:56:38.353Z,1010.24
2018-07-09T06:57:38.336Z,1010.23
2018-07-09T06:58:38.341Z,1010.19
2018-07-09T06:59:38.352Z,1010.16
2018-07-09T07:00:39.211Z,1010.10
2018-07-09T07:01:38.324Z,1010.08
2018-07-09T07:02:38.552Z,1010.08
2018-07-09T07:03:38.390Z,1010.06
2018-07-09T07:04:38.265Z,1010.02
2018-07-09T07:05:38.413Z,1010.02
2018-07-09T07:06:38.473Z,1010.00
2018-07-09T07:07:38.241Z,1010.03
2018-07-09T07:08:38.252Z,1009.98
2018-07-09T07:09:39.181Z,1010.03
2018-07-09T07:10:38.231Z,1009.99
2018-07-09T07:11:38.292Z,1009.98
2018-07-09T07:12:38.241Z,1009.95
2018-07-09T07:13:38.208Z,1009.89
2018-07-09T07:14:38.181Z,1009.91
2018-07-09T07:15:38.172Z,1009.87
2018-07-09T07:16:38.176Z,1009.94
2018-07-09T07:17:38.215Z,1009.89
2018-07-09T07:18:38.297Z,1009.88
2018-07-09T07:19:38.164Z,1009.89
2018-07-09T07:20:38.222Z,1009.83
2018-07-09T07:21:38.127Z,1009.78
2018-07-09T07:22:38.126Z,1009.80
2018-07-09T07:23:38.109Z,1009.77
2018-07-09T07:24:38.125Z,1009.80
2018-07-09T07:25:38.170Z,1009.83
2018-07-09T07:26:38.136Z,1009.83
2018-07-09T07:27:38.219Z,1009.78
2018-07-09T07:28:38.413Z,1009.80
2018-07-09T07:29:38.086Z,1009.79
2018-07-09T07:30:38.074Z,1009.79
2018-07-09T07:31:38.065Z,1009.82
2018-07-09T07:32:38.121Z,1009.83
2018-07-09T07:33:38.166Z,1009.84
2018-07-09T07:34:38.045Z,1009.84
2018-07-09T07:35:38.034Z,1009.84
2018-07-09T07:36:39.574Z,1009.81
2018-07-09T07:37:37.999Z,1009.85
2018-07-09T07:38:38.030Z,1009.84
2018-07-09T07:39:37.987Z,1009.84
2018-07-09T07:40:37.977Z,1009.81
2018-07-09T07:41:37.985Z,1009.87
2018-07-09T07:42:37.959Z,1009.88
2018-07-09T07:43:38.101Z,1009.87
2018-07-09T07:44:37.961Z,1009.85
2018-07-09T07:45:37.934Z,1009.85
2018-07-09T07:46:37.935Z,1009.86
2018-07-09T07:47:37.934Z,1009.83
2018-07-09T07:48:38.201Z,1009.84
2018-07-09T07:49:37.911Z,1009.88
2018-07-09T07:50:38.043Z,1009.88
2018-07-09T07:51:37.890Z,1009.88
2018-07-09T07:52:37.877Z,1009.87
2018-07-09T07:53:37.878Z,1009.86
2018-07-09T07:54:37.916Z,1009.84
2018-07-09T07:55:37.855Z,1009.86
2018-07-09T07:56:37.859Z,1009.89
2018-07-09T07:57:37.848Z,1009.88
2018-07-09T07:58:37.842Z,1009.85
2018-07-09T07:59:37.823Z,1009.87
2018-07-09T08:00:37.954Z,1009.88
2018-07-09T08:01:37.798Z,1009.83
2018-07-09T08:02:37.801Z,1009.82
2018-07-09T08:03:37.786Z,1009.82
2018-07-09T08:04:37.783Z,1009.86
2018-07-09T08:05:37.784Z,1009.88
2018-07-09T08:06:37.784Z,1009.83
2018-07-09T08:07:37.759Z,1009.81
2018-07-09T08:08:37.761Z,1009.79
2018-07-09T08:09:37.813Z,1009.86
2018-07-09T08:10:37.773Z,1009.82
2018-07-09T08:11:48.566Z,1009.74
2018-07-09T08:13:37.763Z,1009.74
2018-07-09T08:14:37.709Z,1009.69
2018-07-09T08:15:38.119Z,1009.64
2018-07-09T08:16:37.696Z,1009.66
2018-07-09T08:17:37.695Z,1009.68
2018-07-09T08:18:37.712Z,1009.74
2018-07-09T08:19:37.680Z,1009.73
2018-07-09T08:20:37.653Z,1009.66
2018-07-09T08:21:37.651Z,1009.63
2018-07-09T08:22:37.645Z,1009.64
2018-07-09T08:23:37.649Z,1009.60
2018-07-09T08:24:37.644Z,1009.59
2018-07-09T08:25:37.672Z,1009.61
2018-07-09T08:26:37.636Z,1009.64
2018-07-09T08:27:48.555Z,1009.66
2018-07-09T08:30:10.458Z,1009.62
2018-07-09T08:31:10.352Z,1009.64
2018-07-09T08:32:10.386Z,1009.70
2018-07-09T08:33:10.201Z,1009.67
2018-07-09T08:34:10.225Z,1009.74
2018-07-09T08:35:10.199Z,1009.73
2018-07-09T08:36:10.204Z,1009.75
2018-07-09T08:37:10.192Z,1009.73
2018-07-09T08:38:10.197Z,1009.72
2018-07-09T08:39:10.158Z,1009.69
2018-07-09T08:40:10.290Z,1009.67
2018-07-09T08:41:10.158Z,1009.66
2018-07-09T08:42:10.148Z,1009.65
2018-07-09T08:43:10.144Z,1009.63
2018-07-09T08:44:10.136Z,1009.67
2018-07-09T08:45:10.155Z,1009.63
2018-07-09T08:46:10.154Z,1009.64
2018-07-09T08:47:10.124Z,1009.66
2018-07-09T08:48:10.107Z,1009.62
2018-07-09T08:49:10.103Z,1009.66
2018-07-09T08:50:10.090Z,1009.72
2018-07-09T08:51:10.097Z,1009.70
2018-07-09T08:52:10.084Z,1009.71
2018-07-09T08:53:10.083Z,1009.70
2018-07-09T08:54:10.063Z,1009.70
2018-07-09T08:55:10.081Z,1009.70
2018-07-09T08:56:10.090Z,1009.70
2018-07-09T08:57:10.045Z,1009.63
2018-07-09T08:58:10.080Z,1009.63
2018-07-09T08:59:10.033Z,1009.68
2018-07-09T09:00:10.024Z,1009.67
2018-07-09T09:01:10.046Z,1009.67
2018-07-09T09:02:10.041Z,1009.68
2018-07-09T09:03:10.128Z,1009.65
2018-07-09T09:04:10.025Z,1009.64
2018-07-09T09:05:10.025Z,1009.68
2018-07-09T09:06:09.990Z,1009.67
2018-07-09T09:07:10.126Z,1009.71
2018-07-09T09:08:09.993Z,1009.68
2018-07-09T09:09:09.980Z,1009.67
2018-07-09T09:10:10.058Z,1009.67
2018-07-09T09:11:09.961Z,1009.70
2018-07-09T09:12:09.955Z,1009.69
2018-07-09T09:13:09.953Z,1009.71
2018-07-09T09:14:09.937Z,1009.75
2018-07-09T09:15:09.934Z,1009.73
2018-07-09T09:16:09.923Z,1009.69
2018-07-09T09:17:09.903Z,1009.68
2018-07-09T09:18:09.966Z,1009.66
2018-07-09T09:19:09.933Z,1009.63
2018-07-09T09:20:09.898Z,1009.60
2018-07-09T09:21:09.890Z,1009.56
2018-07-09T09:22:09.889Z,1009.58
2018-07-09T09:23:09.880Z,1009.55
2018-07-09T09:24:09.951Z,1009.58
2018-07-09T09:25:09.855Z,1009.60
2018-07-09T09:26:09.855Z,1009.57
2018-07-09T09:27:09.848Z,1009.56
2018-07-09T09:28:09.842Z,1009.55
2018-07-09T09:29:09.821Z,1009.57
2018-07-09T09:30:09.860Z,1009.59
2018-07-09T09:31:09.829Z,1009.59
2018-07-09T09:32:09.807Z,1009.59
2018-07-09T09:33:09.795Z,1009.60
2018-07-09T09:34:09.796Z,1009.61
2018-07-09T09:35:09.871Z,1009.61
2018-07-09T09:36:09.790Z,1009.60
2018-07-09T09:37:09.778Z,1009.58
2018-07-09T09:38:09.784Z,1009.60
2018-07-09T09:39:09.787Z,1009.62
2018-07-09T09:40:09.798Z,1009.62
2018-07-09T09:41:09.742Z,1009.63
2018-07-09T09:42:09.769Z,1009.64
2018-07-09T09:43:09.813Z,1009.61
2018-07-09T09:44:09.720Z,1009.62
2018-07-09T09:45:09.756Z,1009.59
2018-07-09T09:46:09.726Z,1009.58
2018-07-09T09:47:09.690Z,1009.60
2018-07-09T09:48:09.707Z,1009.54
2018-07-09T09:49:09.687Z,1009.57
2018-07-09T09:50:09.764Z,1009.56
2018-07-09T09:51:09.670Z,1009.54
2018-07-09T09:52:09.681Z,1009.53
2018-07-09T09:53:09.648Z,1009.56
2018-07-09T09:54:09.652Z,1009.53
2018-07-09T09:55:09.664Z,1009.57
2018-07-09T09:56:09.656Z,1009.59
2018-07-09T09:57:09.627Z,1009.56
2018-07-09T09:58:09.621Z,1009.56
2018-07-09T09:59:09.697Z,1009.56
2018-07-09T10:00:09.614Z,1009.52
2018-07-09T10:01:11.425Z,1009.52
2018-07-09T10:02:09.638Z,1009.50
2018-07-09T10:03:09.590Z,1009.51
2018-07-09T10:04:09.585Z,1009.51
2018-07-09T10:05:09.579Z,1009.53
2018-07-09T10:06:09.589Z,1009.53
2018-07-09T10:07:09.588Z,1009.55
2018-07-09T10:08:09.567Z,1009.58
2018-07-09T10:09:10.664Z,1009.59
2018-07-09T10:10:09.528Z,1009.61
2018-07-09T10:11:09.531Z,1009.56
2018-07-09T10:12:09.558Z,1009.59
2018-07-09T10:13:09.519Z,1009.57
2018-07-09T10:14:09.517Z,1009.56
2018-07-09T10:15:09.495Z,1009.59
2018-07-09T10:16:09.492Z,1009.58
2018-07-09T10:17:09.632Z,1009.60
2018-07-09T10:18:09.546Z,1009.60
2018-07-09T10:19:09.475Z,1009.60
2018-07-09T10:20:09.494Z,1009.60
2018-07-09T10:21:09.457Z,1009.61
2018-07-09T10:22:09.467Z,1009.61
2018-07-09T10:23:10.021Z,1009.59
2018-07-09T10:24:09.456Z,1009.59
2018-07-09T10:25:09.428Z,1009.57
2018-07-09T10:26:09.428Z,1009.59
2018-07-09T10:27:09.757Z,1009.61
2018-07-09T10:28:09.422Z,1009.60
2018-07-09T10:29:09.406Z,1009.63
2018-07-09T10:30:09.402Z,1009.61
2018-07-09T10:31:09.384Z,1009.64
2018-07-09T10:32:09.377Z,1009.62
2018-07-09T10:33:09.393Z,1009.62
2018-07-09T10:34:09.384Z,1009.62
2018-07-09T10:35:09.375Z,1009.66
2018-07-09T10:36:09.347Z,1009.62
2018-07-09T10:37:09.350Z,1009.59
2018-07-09T10:38:09.331Z,1009.65
2018-07-09T10:39:09.370Z,1009.64
2018-07-09T10:40:09.379Z,1009.62
2018-07-09T10:41:09.320Z,1009.62
2018-07-09T10:42:09.869Z,1009.61
2018-07-09T10:43:09.352Z,1009.65
2018-07-09T10:44:09.282Z,1009.62
2018-07-09T10:45:09.338Z,1009.60
2018-07-09T10:46:09.299Z,1009.58
2018-07-09T10:47:09.290Z,1009.61
2018-07-09T10:48:09.289Z,1009.62
2018-07-09T10:49:09.331Z,1009.62
2018-07-09T10:50:09.259Z,1009.59
2018-07-09T10:51:09.311Z,1009.54
2018-07-09T10:52:09.228Z,1009.57
2018-07-09T10:53:09.232Z,1009.55
2018-07-09T10:54:09.364Z,1009.52
2018-07-09T10:55:09.247Z,1009.51
2018-07-09T10:56:09.370Z,1009.47
2018-07-09T10:57:10.332Z,1009.42
2018-07-09T10:58:09.179Z,1009.40
2018-07-09T10:59:09.184Z,1009.45
2018-07-09T11:00:09.177Z,1009.46
2018-07-09T11:01:09.167Z,1009.45
2018-07-09T11:02:09.181Z,1009.38
2018-07-09T11:03:09.144Z,1009.41
2018-07-09T11:04:09.163Z,1009.36
2018-07-09T11:05:09.142Z,1009.37
2018-07-09T11:06:09.123Z,1009.35
2018-07-09T11:07:09.129Z,1009.36
2018-07-09T11:08:09.111Z,1009.39
2018-07-09T11:09:09.101Z,1009.41
2018-07-09T11:10:09.108Z,1009.36
2018-07-09T11:11:09.085Z,1009.31
2018-07-09T11:12:09.073Z,1009.37
2018-07-09T11:13:09.079Z,1009.50
2018-07-09T11:14:09.071Z,1009.44
2018-07-09T11:15:09.115Z,1009.27
2018-07-09T11:16:09.064Z,1009.32
2018-07-09T11:17:09.063Z,1009.31
2018-07-09T11:18:09.042Z,1009.36
2018-07-09T11:19:09.031Z,1009.25
2018-07-09T11:20:09.024Z,1009.34
2018-07-09T11:21:09.066Z,1009.24
2018-07-09T11:22:09.087Z,1009.23
2018-07-09T11:23:09.034Z,1009.21
2018-07-09T11:24:09.003Z,1009.18
2018-07-09T11:25:09.009Z,1009.20
2018-07-09T11:26:09.025Z,1009.16
2018-07-09T11:27:08.994Z,1009.18
2018-07-09T11:28:08.990Z,1009.14
2018-07-09T11:29:09.006Z,1009.14
2018-07-09T11:30:08.972Z,1009.12
2018-07-09T11:31:08.962Z,1009.08
2018-07-09T11:32:08.983Z,1009.05
2018-07-09T11:33:08.981Z,1009.07
2018-07-09T11:34:08.971Z,1009.19
2018-07-09T11:35:08.939Z,1009.10
2018-07-09T11:36:09.013Z,1009.08
2018-07-09T11:37:09.124Z,1009.17
2018-07-09T11:38:08.923Z,1009.01
2018-07-09T11:39:08.928Z,1009.00
2018-07-09T11:40:08.901Z,1008.96
2018-07-09T11:41:08.899Z,1008.92
2018-07-09T11:42:08.971Z,1008.91
2018-07-09T11:43:09.020Z,1008.88
2018-07-09T11:44:08.911Z,1008.90
2018-07-09T11:45:08.889Z,1008.93
2018-07-09T11:46:08.879Z,1008.94
2018-07-09T11:47:08.883Z,1008.90
2018-07-09T11:48:08.925Z,1008.85
2018-07-09T11:49:08.850Z,1008.92
2018-07-09T11:50:08.851Z,1008.94
2018-07-09T11:51:08.850Z,1008.94
2018-07-09T11:52:08.860Z,1008.92
2018-07-09T11:53:08.831Z,1008.90
2018-07-09T11:54:08.815Z,1008.88
2018-07-09T11:55:08.814Z,1008.88
2018-07-09T11:56:08.809Z,1008.88
2018-07-09T11:57:09.292Z,1008.91
2018-07-09T11:58:09.390Z,1008.88
2018-07-09T11:59:08.834Z,1008.89
2018-07-09T12:00:08.780Z,1008.89
2018-07-09T12:01:08.789Z,1008.86
2018-07-09T12:02:08.799Z,1008.90
2018-07-09T12:03:09.414Z,1008.87
2018-07-09T12:04:08.758Z,1008.87
2018-07-09T12:05:08.748Z,1008.92
2018-07-09T12:06:08.767Z,1008.89
2018-07-09T12:07:08.757Z,1008.85
2018-07-09T12:08:08.750Z,1008.75
2018-07-09T12:09:08.708Z,1008.72
2018-07-09T12:10:08.733Z,1008.65
2018-07-09T12:11:08.711Z,1008.72
2018-07-09T12:12:08.784Z,1008.68
2018-07-09T12:13:10.394Z,1008.66
2018-07-09T12:14:09.402Z,1008.65
2018-07-09T12:15:08.696Z,1008.64
2018-07-09T12:16:08.684Z,1008.60